createdAt,value
2019-03-16T00:00:21.282Z,4.66
2019-03-16T00:02:49.939Z,4.57
2019-03-16T00:05:18.721Z,4.32
2019-03-16T00:07:47.327Z,4.23
2019-03-16T00:10:16.012Z,4.26
2019-03-16T00:12:44.638Z,4.36
2019-03-16T00:15:13.239Z,4.55
2019-03-16T00:17:42.017Z,4.60
2019-03-16T00:20:11.821Z,4.37
2019-03-16T00:22:40.794Z,4.39
2019-03-16T00:25:10.422Z,4.46
2019-03-16T00:27:39.111Z,4.40
2019-03-16T00:30:10.638Z,4.31
2019-03-16T00:32:39.455Z,4.33
2019-03-16T00:35:08.063Z,4.37
2019-03-16T00:37:37.921Z,4.57
2019-03-16T00:40:12.058Z,4.43
2019-03-16T00:42:40.806Z,4.16
2019-03-16T00:45:12.575Z,4.32
2019-03-16T00:47:41.622Z,4.34
2019-03-16T00:50:13.330Z,4.37
2019-03-16T00:52:41.929Z,4.45
2019-03-16T00:55:12.738Z,4.46
2019-03-16T00:57:41.487Z,4.45
2019-03-16T01:00:12.418Z,4.42
2019-03-16T01:02:41.109Z,4.39
2019-03-16T01:05:09.850Z,4.49
2019-03-16T01:07:38.511Z,4.63
2019-03-16T01:10:09.022Z,4.58
2019-03-16T01:12:37.697Z,4.58
2019-03-16T01:15:12.435Z,4.50
2019-03-16T01:17:41.456Z,4.43
2019-03-16T01:20:13.819Z,4.60
2019-03-16T01:22:42.520Z,4.50
2019-03-16T01:25:12.987Z,4.49
2019-03-16T01:27:41.654Z,4.53
2019-03-16T01:30:13.670Z,4.53
2019-03-16T01:32:42.377Z,4.53
2019-03-16T01:35:10.971Z,4.62
2019-03-16T01:37:39.575Z,4.49
2019-03-16T01:40:10.256Z,4.53
2019-03-16T01:42:38.896Z,4.62
2019-03-16T01:45:10.131Z,4.71
2019-03-16T01:47:39.170Z,4.74
2019-03-16T01:50:13.028Z,4.71
2019-03-16T01:52:41.641Z,4.72
2019-03-16T01:55:10.304Z,4.74
2019-03-16T01:57:38.914Z,4.74
2019-03-16T02:00:10.615Z,4.64
2019-03-16T02:02:39.428Z,4.68
2019-03-16T02:05:08.595Z,4.56
2019-03-16T02:07:37.210Z,4.68
2019-03-16T02:10:07.585Z,4.80
2019-03-16T02:12:36.217Z,4.80
2019-03-16T02:15:06.595Z,4.95
2019-03-16T02:17:35.420Z,4.84
2019-03-16T02:20:05.420Z,4.97
2019-03-16T02:22:34.088Z,4.92
2019-03-16T02:25:02.696Z,4.69
2019-03-16T02:27:32.025Z,4.66
2019-03-16T02:30:00.720Z,4.84
2019-03-16T02:32:29.352Z,4.79
2019-03-16T02:34:58.046Z,4.74
2019-03-16T02:37:27.607Z,4.79
2019-03-16T02:39:56.268Z,5.09
2019-03-16T02:42:24.971Z,4.96
2019-03-16T02:44:53.770Z,5.33
2019-03-16T02:47:22.449Z,5.20
2019-03-16T02:49:51.151Z,5.01
2019-03-16T02:52:19.747Z,4.81
2019-03-16T02:54:48.578Z,4.79
2019-03-16T02:57:17.454Z,4.75
2019-03-16T02:59:46.033Z,4.96
2019-03-16T03:02:14.736Z,5.02
2019-03-16T03:04:45.869Z,5.11
2019-03-16T03:07:14.084Z,5.13
2019-03-16T03:09:43.671Z,5.01
2019-03-16T03:12:12.395Z,5.01
2019-03-16T03:14:41.067Z,5.13
2019-03-16T03:17:10.701Z,5.07
2019-03-16T03:19:39.486Z,5.06
2019-03-16T03:22:08.152Z,4.96
2019-03-16T03:24:36.840Z,5.09
2019-03-16T03:27:05.589Z,5.17
2019-03-16T03:29:34.271Z,4.97
2019-03-16T03:32:03.366Z,4.81
2019-03-16T03:34:32.067Z,4.69
2019-03-16T03:37:00.730Z,4.77
2019-03-16T03:39:29.498Z,5.02
2019-03-16T03:41:59.762Z,5.07
2019-03-16T03:44:28.364Z,5.29
2019-03-16T03:46:57.030Z,5.27
2019-03-16T03:49:26.275Z,5.37
2019-03-16T03:51:55.083Z,5.22
2019-03-16T03:54:23.760Z,5.15
2019-03-16T03:56:53.581Z,5.36
2019-03-16T03:59:22.350Z,5.22
2019-03-16T04:01:51.095Z,4.96
2019-03-16T04:04:20.047Z,4.91
2019-03-16T04:06:48.888Z,5.09
2019-03-16T04:09:17.513Z,5.02
2019-03-16T04:11:46.197Z,5.22
2019-03-16T04:14:15.462Z,5.36
2019-03-16T04:16:44.878Z,4.90
2019-03-16T04:19:13.716Z,4.83
2019-03-16T04:21:42.323Z,4.91
2019-03-16T04:24:11.060Z,4.99
2019-03-16T04:26:39.866Z,5.00
2019-03-16T04:29:09.331Z,5.01
2019-03-16T04:31:38.003Z,4.68
2019-03-16T04:34:06.733Z,4.61
2019-03-16T04:36:35.520Z,4.74
2019-03-16T04:39:05.963Z,4.91
2019-03-16T04:41:34.695Z,5.00
2019-03-16T04:44:03.405Z,4.67
2019-03-16T04:46:32.092Z,4.69
2019-03-16T04:49:01.925Z,4.81
2019-03-16T04:51:30.561Z,4.99
2019-03-16T04:53:59.365Z,5.14
2019-03-16T04:56:28.194Z,5.20
2019-03-16T04:58:57.347Z,5.14
2019-03-16T05:01:26.640Z,5.17
2019-03-16T05:03:55.760Z,5.51
2019-03-16T05:06:24.431Z,5.34
2019-03-16T05:08:53.180Z,5.39
2019-03-16T05:11:22.596Z,5.27
2019-03-16T05:13:51.223Z,5.04
2019-03-16T05:16:20.278Z,4.90
2019-03-16T05:18:48.899Z,4.92
2019-03-16T05:21:17.609Z,4.93
2019-03-16T05:23:46.253Z,5.17
2019-03-16T05:26:14.949Z,5.16
2019-03-16T05:28:43.562Z,5.35
2019-03-16T05:31:12.245Z,4.94
2019-03-16T05:33:40.870Z,4.97
2019-03-16T05:36:09.477Z,5.10
2019-03-16T05:38:39.597Z,5.08
2019-03-16T05:41:08.217Z,5.03
2019-03-16T05:43:38.491Z,5.07
2019-03-16T05:46:07.115Z,5.09
2019-03-16T05:48:35.795Z,5.11
2019-03-16T05:51:04.535Z,4.90
2019-03-16T05:53:33.238Z,4.77
2019-03-16T05:56:01.920Z,4.79
2019-03-16T05:58:30.663Z,4.93
2019-03-16T06:00:59.422Z,4.95
2019-03-16T06:03:28.082Z,5.02
2019-03-16T06:05:56.762Z,5.04
2019-03-16T06:08:25.472Z,5.04
2019-03-16T06:10:54.717Z,5.09
2019-03-16T06:13:23.421Z,5.07
2019-03-16T06:15:52.142Z,5.11
2019-03-16T06:18:20.827Z,5.33
2019-03-16T06:20:49.489Z,5.42
2019-03-16T06:23:18.312Z,5.49
2019-03-16T06:25:47.318Z,5.57
2019-03-16T06:28:15.983Z,5.56
2019-03-16T06:30:44.712Z,5.43
2019-03-16T06:33:14.205Z,5.34
2019-03-16T06:35:42.833Z,5.31
2019-03-16T06:38:12.000Z,5.36
2019-03-16T06:40:40.693Z,5.38
2019-03-16T06:43:09.463Z,5.42
2019-03-16T06:45:39.372Z,5.43
2019-03-16T06:48:08.041Z,5.55
2019-03-16T06:50:36.691Z,5.63
2019-03-16T06:53:05.385Z,5.82
2019-03-16T06:55:34.512Z,5.76
2019-03-16T06:58:03.303Z,5.75
2019-03-16T07:00:32.027Z,5.83
2019-03-16T07:03:00.706Z,5.87
2019-03-16T07:05:38.116Z,5.93
2019-03-16T07:08:00.841Z,6.05
2019-03-16T07:10:29.529Z,6.05
2019-03-16T07:12:58.179Z,6.19
2019-03-16T07:15:28.034Z,6.13
2019-03-16T07:17:56.716Z,6.09
2019-03-16T07:20:25.330Z,6.22
2019-03-16T07:22:54.021Z,6.41
2019-03-16T07:25:23.135Z,6.52
2019-03-16T07:27:51.815Z,6.62
2019-03-16T07:30:20.559Z,6.72
2019-03-16T07:32:49.233Z,6.79
2019-03-16T07:35:18.506Z,6.84
2019-03-16T07:37:47.208Z,6.97
2019-03-16T07:40:15.801Z,7.03
2019-03-16T07:42:44.513Z,7.11
2019-03-16T07:45:13.814Z,7.11
2019-03-16T07:47:42.504Z,7.04
2019-03-16T07:50:13.506Z,7.12
2019-03-16T07:52:42.225Z,7.20
2019-03-16T07:55:11.286Z,7.32
2019-03-16T07:57:41.112Z,7.39
2019-03-16T08:00:12.034Z,7.56
2019-03-16T08:02:41.303Z,7.63
2019-03-16T08:05:18.314Z,7.55
2019-03-16T08:07:41.882Z,7.58
2019-03-16T08:10:11.259Z,7.63
2019-03-16T08:12:42.934Z,7.75
2019-03-16T08:15:14.024Z,7.85
2019-03-16T08:17:42.776Z,7.74
2019-03-16T08:20:12.002Z,7.82
2019-03-16T08:22:40.606Z,7.93
2019-03-16T08:25:10.533Z,7.71
2019-03-16T08:27:52.982Z,7.54
2019-03-16T08:30:11.327Z,7.61
2019-03-16T08:32:39.952Z,7.68
2019-03-16T08:35:09.427Z,7.67
2019-03-16T08:37:38.079Z,7.69
2019-03-16T08:40:11.412Z,7.72
2019-03-16T08:42:40.158Z,7.72
2019-03-16T08:45:11.798Z,7.92
2019-03-16T08:47:40.752Z,8.02
2019-03-16T08:50:10.767Z,7.99
2019-03-16T08:52:39.509Z,8.03
2019-03-16T08:55:09.282Z,8.10
2019-03-16T08:57:38.493Z,8.15
2019-03-16T09:00:09.966Z,8.20
2019-03-16T09:02:39.514Z,8.17
2019-03-16T09:05:08.943Z,8.25
2019-03-16T09:07:37.630Z,8.18
2019-03-16T09:10:08.829Z,8.26
2019-03-16T09:12:37.483Z,8.19
2019-03-16T09:15:12.424Z,8.24
2019-03-16T09:17:42.750Z,8.21
2019-03-16T09:20:11.687Z,8.37
2019-03-16T09:22:40.315Z,8.38
2019-03-16T09:25:10.389Z,8.48
2019-03-16T09:27:42.023Z,8.45
2019-03-16T09:30:15.431Z,8.41
2019-03-16T09:32:44.219Z,8.33
2019-03-16T09:35:13.176Z,8.26
2019-03-16T09:37:41.852Z,8.39
2019-03-16T09:40:11.475Z,8.48
2019-03-16T09:42:41.524Z,8.55
2019-03-16T09:45:13.025Z,8.78
2019-03-16T09:47:42.095Z,8.79
2019-03-16T09:50:13.357Z,8.87
2019-03-16T09:52:42.409Z,8.91
2019-03-16T09:55:12.077Z,8.87
2019-03-16T09:57:40.857Z,8.98
2019-03-16T10:00:17.455Z,8.88
2019-03-16T10:02:47.396Z,8.90
2019-03-16T10:05:17.737Z,8.89
2019-03-16T10:07:46.491Z,8.97
2019-03-16T10:10:15.726Z,9.22
2019-03-16T10:12:45.098Z,8.88
2019-03-16T10:15:14.615Z,8.98
2019-03-16T10:17:43.464Z,9.21
2019-03-16T10:20:15.882Z,9.14
2019-03-16T10:22:45.113Z,9.01
2019-03-16T10:25:13.828Z,8.97
2019-03-16T10:27:42.515Z,9.06
2019-03-16T10:30:14.996Z,9.23
2019-03-16T10:32:43.725Z,9.29
2019-03-16T10:35:13.425Z,9.21
2019-03-16T10:37:43.716Z,9.45
2019-03-16T10:40:14.200Z,9.46
2019-03-16T10:42:42.825Z,9.40
2019-03-16T10:45:12.241Z,9.46
2019-03-16T10:47:40.942Z,9.54
2019-03-16T10:50:13.429Z,9.45
2019-03-16T10:52:42.121Z,9.33
2019-03-16T10:55:10.943Z,9.45
2019-03-16T10:57:39.548Z,9.62
2019-03-16T11:00:16.031Z,9.81
2019-03-16T11:02:45.135Z,9.69
2019-03-16T11:05:13.862Z,9.74
2019-03-16T11:07:42.586Z,9.68
2019-03-16T11:10:14.871Z,9.58
2019-03-16T11:12:44.664Z,9.60
2019-03-16T11:15:14.384Z,9.91
2019-03-16T11:17:44.675Z,9.86
2019-03-16T11:20:18.543Z,9.84
2019-03-16T11:22:47.240Z,9.85
2019-03-16T11:25:16.841Z,9.82
2019-03-16T11:27:45.550Z,9.58
2019-03-16T11:30:20.536Z,9.63
2019-03-16T11:32:49.230Z,9.61
2019-03-16T11:35:17.901Z,9.60
2019-03-16T11:37:46.956Z,9.72
2019-03-16T11:40:19.613Z,9.89
2019-03-16T11:42:48.311Z,9.83
2019-03-16T11:45:17.584Z,9.86
2019-03-16T11:47:46.419Z,9.98
2019-03-16T11:50:15.321Z,9.92
2019-03-16T11:52:43.929Z,9.84
2019-03-16T11:55:12.726Z,9.85
2019-03-16T11:57:41.793Z,9.96
2019-03-16T12:00:15.323Z,10.10
2019-03-16T12:02:43.962Z,10.18
2019-03-16T12:05:13.044Z,10.07
2019-03-16T12:07:41.756Z,10.16
2019-03-16T12:10:11.754Z,10.28
2019-03-16T12:12:40.449Z,10.37
2019-03-16T12:15:11.346Z,10.44
2019-03-16T12:17:40.039Z,10.29
2019-03-16T12:20:12.857Z,10.39
2019-03-16T12:22:41.580Z,10.44
2019-03-16T12:25:10.326Z,10.58
2019-03-16T12:27:39.003Z,10.78
2019-03-16T12:30:12.708Z,10.75
2019-03-16T12:32:41.391Z,10.85
2019-03-16T12:35:10.739Z,11.23
2019-03-16T12:37:39.607Z,11.19
2019-03-16T12:40:13.220Z,11.01
2019-03-16T12:42:42.308Z,11.28
2019-03-16T12:45:20.524Z,11.48
2019-03-16T12:47:49.267Z,11.25
2019-03-16T12:50:18.653Z,11.56
2019-03-16T12:52:47.459Z,11.75
2019-03-16T12:55:16.152Z,11.81
2019-03-16T12:57:47.823Z,12.01
2019-03-16T13:00:17.049Z,12.16
2019-03-16T13:02:45.859Z,12.61
2019-03-16T13:05:14.467Z,12.73
2019-03-16T13:07:43.337Z,12.90
2019-03-16T13:10:14.177Z,12.61
2019-03-16T13:12:43.128Z,12.61
2019-03-16T13:15:11.774Z,12.71
2019-03-16T13:17:40.696Z,13.21
2019-03-16T13:20:11.717Z,13.20
2019-03-16T13:22:40.487Z,12.97
2019-03-16T13:25:13.052Z,13.20
2019-03-16T13:27:42.207Z,13.45
2019-03-16T13:30:16.577Z,13.66
2019-03-16T13:32:45.452Z,13.74
2019-03-16T13:35:14.176Z,13.77
2019-03-16T13:37:42.791Z,13.84
2019-03-16T13:40:16.133Z,13.99
2019-03-16T13:42:44.824Z,13.77
2019-03-16T13:45:13.804Z,13.77
2019-03-16T13:47:42.518Z,13.73
2019-03-16T13:50:21.714Z,13.88
2019-03-16T13:52:50.595Z,13.92
2019-03-16T13:55:19.527Z,14.03
2019-03-16T13:57:49.310Z,14.09
2019-03-16T14:00:21.903Z,14.00
2019-03-16T14:02:51.711Z,14.38
2019-03-16T14:05:20.875Z,14.06
2019-03-16T14:07:49.876Z,14.13
2019-03-16T14:10:23.922Z,14.19
2019-03-16T14:12:52.809Z,14.18
2019-03-16T14:15:21.460Z,13.79
2019-03-16T14:17:50.524Z,13.62
2019-03-16T14:20:20.007Z,13.34
2019-03-16T14:22:48.716Z,12.95
2019-03-16T14:25:17.481Z,12.85
2019-03-16T14:27:47.415Z,12.78
2019-03-16T14:30:39.472Z,12.55
2019-03-16T14:32:52.044Z,12.42
2019-03-16T14:35:20.785Z,12.52
2019-03-16T14:37:49.571Z,12.55
2019-03-16T14:40:18.328Z,12.51
2019-03-16T14:42:48.592Z,12.58
2019-03-16T14:45:18.050Z,12.34
2019-03-16T14:47:46.795Z,12.53
2019-03-16T14:50:26.323Z,12.34
2019-03-16T14:52:55.036Z,12.24
2019-03-16T14:55:23.803Z,12.22
2019-03-16T14:57:52.897Z,12.12
2019-03-16T15:00:21.631Z,12.30
2019-03-16T15:02:52.733Z,12.31
2019-03-16T15:05:21.491Z,12.42
2019-03-16T15:07:51.821Z,12.24
2019-03-16T15:10:20.717Z,12.21
2019-03-16T15:12:49.487Z,12.09
2019-03-16T15:15:21.801Z,12.01
2019-03-16T15:17:50.713Z,11.96
2019-03-16T15:20:20.147Z,11.83
2019-03-16T15:22:49.554Z,11.90
2019-03-16T15:25:19.954Z,11.93
2019-03-16T15:27:48.629Z,11.97
2019-03-16T15:30:18.761Z,11.70
2019-03-16T15:32:47.550Z,11.17
2019-03-16T15:35:16.203Z,11.30
2019-03-16T15:37:45.024Z,11.40
2019-03-16T15:40:15.032Z,11.53
2019-03-16T15:42:44.761Z,11.43
2019-03-16T15:45:19.013Z,11.24
2019-03-16T15:47:47.726Z,10.71
2019-03-16T15:50:16.440Z,10.54
2019-03-16T15:52:45.305Z,10.13
2019-03-16T15:55:14.138Z,9.99
2019-03-16T15:57:44.458Z,9.98
2019-03-16T16:00:19.049Z,10.06
2019-03-16T16:02:48.128Z,10.02
2019-03-16T16:05:17.008Z,9.81
2019-03-16T16:07:45.903Z,10.01
2019-03-16T16:10:19.263Z,9.84
2019-03-16T16:12:48.356Z,9.73
2019-03-16T16:15:18.557Z,9.66
2019-03-16T16:17:47.244Z,9.53
2019-03-16T16:20:17.145Z,9.26
2019-03-16T16:22:46.084Z,8.86
2019-03-16T16:25:15.246Z,8.67
2019-03-16T16:27:44.179Z,8.73
2019-03-16T16:30:17.885Z,8.97
2019-03-16T16:32:46.731Z,8.94
2019-03-16T16:35:15.886Z,8.71
2019-03-16T16:37:44.628Z,8.60
2019-03-16T16:40:18.254Z,8.63
2019-03-16T16:42:46.960Z,8.61
2019-03-16T16:45:16.598Z,8.70
2019-03-16T16:47:45.413Z,8.64
2019-03-16T16:50:15.982Z,8.52
2019-03-16T16:52:46.390Z,8.37
2019-03-16T16:55:15.155Z,8.10
2019-03-16T16:57:44.218Z,8.18
2019-03-16T17:00:22.044Z,7.88
2019-03-16T17:02:50.732Z,7.86
2019-03-16T17:05:19.473Z,7.73
2019-03-16T17:07:48.319Z,7.62
2019-03-16T17:10:18.123Z,7.51
2019-03-16T17:12:46.982Z,7.54
2019-03-16T17:15:17.655Z,7.38
2019-03-16T17:20:34.196Z,7.06
2019-03-16T17:23:03.041Z,6.74
2019-03-16T17:25:32.559Z,6.84
2019-03-16T17:28:01.328Z,6.74
2019-03-16T17:30:34.350Z,6.82
2019-03-16T17:33:03.145Z,6.96
2019-03-16T17:35:31.987Z,6.91
2019-03-16T17:38:00.901Z,6.61
2019-03-16T17:40:29.682Z,6.36
2019-03-16T17:42:59.199Z,6.19
2019-03-16T17:45:29.228Z,6.18
2019-03-16T17:47:58.099Z,6.21
2019-03-16T17:50:28.785Z,6.12
2019-03-16T17:52:57.720Z,6.15
2019-03-16T17:55:28.094Z,6.22
2019-03-16T17:57:56.935Z,6.16
2019-03-16T18:00:27.762Z,6.02
2019-03-16T18:03:03.403Z,5.97
2019-03-16T18:05:32.717Z,5.82
2019-03-16T18:08:07.655Z,5.73
2019-03-16T18:10:33.690Z,5.75
2019-03-16T18:13:02.481Z,5.78
2019-03-16T18:15:31.213Z,5.82
2019-03-16T18:18:00.595Z,5.79
2019-03-16T18:20:29.342Z,5.61
2019-03-16T18:22:58.812Z,5.42
2019-03-16T18:25:27.723Z,5.45
2019-03-16T18:27:56.940Z,5.25
2019-03-16T18:30:26.759Z,5.15
2019-03-16T18:32:55.535Z,5.18
2019-03-16T18:35:24.383Z,5.19
2019-03-16T18:37:53.075Z,5.28
2019-03-16T18:40:25.231Z,5.32
2019-03-16T18:42:56.989Z,5.12
2019-03-16T18:45:33.199Z,5.22
2019-03-16T18:48:02.222Z,5.17
2019-03-16T18:50:31.277Z,5.15
2019-03-16T18:53:02.765Z,5.26
2019-03-16T18:55:31.817Z,5.04
2019-03-16T18:58:01.981Z,5.04
2019-03-16T19:00:31.067Z,4.95
2019-03-16T19:03:00.632Z,4.86
2019-03-16T19:05:29.962Z,4.83
2019-03-16T19:07:58.859Z,4.98
2019-03-16T19:10:28.952Z,4.84
2019-03-16T19:12:58.983Z,4.76
2019-03-16T19:15:27.843Z,4.74
2019-03-16T19:17:59.987Z,4.71
2019-03-16T19:20:28.844Z,4.66
2019-03-16T19:22:57.804Z,4.53
2019-03-16T19:25:28.336Z,4.51
2019-03-16T19:27:57.313Z,4.48
2019-03-16T19:30:26.325Z,4.49
2019-03-16T19:32:55.412Z,4.32
2019-03-16T19:35:24.302Z,4.26
2019-03-16T19:37:53.205Z,4.29
2019-03-16T19:40:23.721Z,4.26
2019-03-16T19:42:52.640Z,4.27
2019-03-16T19:45:21.574Z,4.31
2019-03-16T19:47:50.752Z,4.21
2019-03-16T19:50:21.506Z,4.32
2019-03-16T19:52:53.433Z,4.38
2019-03-16T19:55:25.088Z,4.36
2019-03-16T19:57:55.222Z,4.25
2019-03-16T20:00:24.847Z,4.21
2019-03-16T20:02:53.852Z,4.12
2019-03-16T20:05:25.062Z,4.18
2019-03-16T20:07:54.377Z,4.10
2019-03-16T20:10:23.496Z,4.09
2019-03-16T20:12:53.584Z,4.21
2019-03-16T20:15:26.451Z,4.32
2019-03-16T20:17:55.889Z,4.08
2019-03-16T20:20:26.206Z,3.92
2019-03-16T20:22:55.270Z,3.79
2019-03-16T20:25:25.590Z,3.83
2019-03-16T20:27:54.388Z,3.71
2019-03-16T20:30:26.874Z,3.86
2019-03-16T20:33:03.984Z,3.71
2019-03-16T20:35:28.012Z,3.66
2019-03-16T20:37:56.923Z,3.63
2019-03-16T20:40:25.623Z,3.60
2019-03-16T20:42:55.986Z,3.59
2019-03-16T20:45:25.022Z,3.67
2019-03-16T20:47:53.917Z,3.82
2019-03-16T20:50:22.888Z,3.76
2019-03-16T20:52:51.867Z,3.80
2019-03-16T20:55:20.691Z,3.79
2019-03-16T20:57:49.355Z,3.64
2019-03-16T21:00:19.117Z,3.55
2019-03-16T21:02:49.153Z,3.50
2019-03-16T21:05:17.995Z,3.42
2019-03-16T21:07:47.110Z,3.39
2019-03-16T21:10:17.894Z,3.41
2019-03-16T21:12:47.169Z,3.43
2019-03-16T21:15:17.316Z,3.57
2019-03-16T21:17:47.326Z,3.44
2019-03-16T21:20:20.202Z,3.45
2019-03-16T21:22:49.773Z,3.36
2019-03-16T21:25:18.986Z,3.33
2019-03-16T21:27:49.335Z,3.31
2019-03-16T21:30:20.367Z,3.22
2019-03-16T21:32:49.770Z,3.27
2019-03-16T21:35:18.516Z,3.13
2019-03-16T21:37:47.700Z,3.11
2019-03-16T21:40:16.820Z,3.22
2019-03-16T21:42:45.513Z,3.13
2019-03-16T21:45:14.646Z,3.16
2019-03-16T21:47:43.370Z,3.14
2019-03-16T21:50:16.302Z,3.08
2019-03-16T21:52:45.261Z,3.05
2019-03-16T21:55:17.032Z,2.82
2019-03-16T21:57:47.200Z,2.97
2019-03-16T22:00:17.338Z,2.87
2019-03-16T22:02:46.069Z,2.87
2019-03-16T22:05:15.959Z,2.85
2019-03-16T22:07:45.419Z,2.86
2019-03-16T22:10:17.996Z,2.81
2019-03-16T22:12:48.399Z,2.94
2019-03-16T22:15:19.452Z,2.93
2019-03-16T22:17:48.126Z,2.73
2019-03-16T22:20:21.402Z,2.73
2019-03-16T22:22:50.558Z,2.81
2019-03-16T22:25:19.167Z,2.94
2019-03-16T22:27:47.906Z,3.00
2019-03-16T22:30:17.434Z,3.01
2019-03-16T22:32:46.137Z,2.91
2019-03-16T22:35:16.010Z,2.84
2019-03-16T22:37:44.716Z,2.71
2019-03-16T22:40:14.467Z,2.78
2019-03-16T22:42:43.685Z,2.70
2019-03-16T22:45:13.613Z,2.70
2019-03-16T22:47:42.320Z,2.64
2019-03-16T22:50:17.541Z,2.55
2019-03-16T22:52:46.239Z,2.51
2019-03-16T22:55:16.165Z,2.71
2019-03-16T22:57:45.357Z,2.77
2019-03-16T23:00:19.478Z,2.67
2019-03-16T23:02:48.160Z,2.70
2019-03-16T23:05:16.892Z,2.69
2019-03-16T23:07:45.585Z,2.75
2019-03-16T23:10:14.188Z,2.65
2019-03-16T23:12:43.138Z,2.50
2019-03-16T23:15:12.524Z,2.52
2019-03-16T23:17:41.227Z,2.27
2019-03-16T23:20:11.475Z,2.34
2019-03-16T23:22:40.085Z,2.32
2019-03-16T23:25:11.398Z,2.29
2019-03-16T23:27:40.078Z,2.35
2019-03-16T23:30:12.585Z,2.26
2019-03-16T23:32:41.276Z,2.21
2019-03-16T23:35:10.046Z,2.14
2019-03-16T23:37:38.652Z,1.95
2019-03-16T23:40:10.270Z,1.98
2019-03-16T23:42:38.943Z,2.02
2019-03-16T23:45:10.027Z,1.84
2019-03-16T23:47:38.735Z,1.93
2019-03-16T23:50:12.230Z,1.99
2019-03-16T23:52:40.847Z,1.74
2019-03-16T23:55:10.564Z,1.84
2019-03-16T23:57:39.343Z,1.78
